Time;durP1;ratioP1;P1;durP2;ratioP2;P2;SDS_P1;SDS_P2;PMS_P1;PMS_P2;Temp;Humidity;BMP_temperature;BMP_pressure;BME280_temperature;BME280_humidity;BME280_pressure;Samples;Min_cycle;Max_cycle;Signal;HPM_P1;HPM_P2
2021/01/23 00:02:21;;;;;;;0.77;0.40;;;2.00;91.60;;;;;;5115312;28;20546;-79
2021/01/23 00:04:47;;;;;;;0.63;0.40;;;1.90;91.60;;;;;;5114772;28;20063;-79
2021/01/23 00:07:13;;;;;;;0.40;0.30;;;2.00;91.60;;;;;;5096347;28;20115;-78
2021/01/23 00:09:38;;;;;;;1.05;0.50;;;1.90;91.60;;;;;;5079506;28;20032;-78
2021/01/23 00:12:05;;;;;;;0.77;0.30;;;1.90;91.60;;;;;;5096773;28;20419;-77
2021/01/23 00:14:31;;;;;;;0.57;0.40;;;1.80;91.60;;;;;;5114560;28;20084;-77
2021/01/23 00:16:57;;;;;;;0.70;0.40;;;1.80;91.60;;;;;;5114344;28;20488;-77
2021/01/23 00:19:23;;;;;;;0.52;0.40;;;1.90;91.70;;;;;;5096777;28;20118;-78
2021/01/23 00:21:51;;;;;;;0.70;0.47;;;1.80;91.60;;;;;;5097137;28;20170;-79
2021/01/23 00:24:17;;;;;;;1.13;0.60;;;1.70;91.60;;;;;;5078914;28;20111;-79
2021/01/23 00:26:44;;;;;;;0.43;0.40;;;1.70;91.60;;;;;;5114615;28;20043;-76
2021/01/23 00:29:12;;;;;;;1.13;0.50;;;1.80;91.70;;;;;;5096401;28;20067;-77
2021/01/23 00:31:38;;;;;;;0.60;0.50;;;1.70;91.60;;;;;;5114819;28;20058;-79
2021/01/23 00:34:04;;;;;;;0.77;0.55;;;1.80;91.60;;;;;;5096944;28;20488;-78
2021/01/23 00:36:30;;;;;;;1.15;0.55;;;1.70;91.60;;;;;;5114518;28;20044;-79
2021/01/23 00:38:56;;;;;;;1.50;0.43;;;1.70;91.60;;;;;;5096299;28;20044;-78
2021/01/23 00:41:22;;;;;;;1.10;0.70;;;1.70;91.60;;;;;;5114026;28;20531;-76
2021/01/23 00:43:47;;;;;;;0.80;0.55;;;1.80;91.60;;;;;;5096468;28;20068;-76
2021/01/23 00:46:13;;;;;;;0.65;0.60;;;1.70;91.60;;;;;;5114011;28;20071;-76
2021/01/23 00:48:39;;;;;;;0.80;0.50;;;1.70;91.60;;;;;;5115381;28;20055;-77
2021/01/23 00:51:05;;;;;;;0.45;0.30;;;1.70;91.60;;;;;;5114322;28;20046;-75
2021/01/23 00:53:31;;;;;;;0.85;0.47;;;1.70;91.60;;;;;;5114105;28;20173;-75
2021/01/23 00:55:56;;;;;;;1.73;0.50;;;1.70;91.50;;;;;;5114135;28;20084;-75
2021/01/23 00:58:22;;;;;;;0.30;0.30;;;1.70;91.60;;;;;;5115061;28;20502;-74
2021/01/23 01:00:48;;;;;;;0.40;0.40;;;1.70;91.60;;;;;;5114080;28;20042;-75
2021/01/23 01:03:14;;;;;;;0.38;0.35;;;1.80;91.60;;;;;;5114325;28;20127;-77
2021/01/23 01:05:39;;;;;;;0.93;0.50;;;1.60;91.50;;;;;;5096101;28;20046;-77
2021/01/23 01:08:05;;;;;;;0.40;0.40;;;1.60;91.60;;;;;;5113526;28;20481;-77
2021/01/23 01:10:31;;;;;;;0.50;0.40;;;1.60;91.60;;;;;;5114026;28;20032;-77
2021/01/23 01:12:57;;;;;;;0.60;0.40;;;1.60;91.60;;;;;;5096104;28;20039;-82
2021/01/23 01:15:22;;;;;;;0.30;0.30;;;1.60;91.60;;;;;;5078945;28;20050;-80
2021/01/23 01:17:48;;;;;;;0.70;0.30;;;1.60;91.60;;;;;;5096146;28;20102;-76
2021/01/23 01:20:19;;;;;;;1.95;0.70;;;1.70;91.60;;;;;;5113591;28;20045;-81
2021/01/23 01:22:45;;;;;;;1.42;0.60;;;1.70;91.60;;;;;;5095495;28;20122;-79
2021/01/23 01:25:11;;;;;;;0.43;0.40;;;1.60;91.50;;;;;;5095376;28;20071;-78
2021/01/23 01:27:36;;;;;;;0.98;0.40;;;1.70;91.50;;;;;;5106768;28;20028;-80
2021/01/23 01:30:03;;;;;;;0.98;0.50;;;1.80;91.50;;;;;;5096559;28;20044;-80
2021/01/23 01:32:29;;;;;;;0.65;0.40;;;1.60;91.40;;;;;;5113345;28;20046;-77
2021/01/23 01:34:55;;;;;;;0.70;0.47;;;1.70;91.40;;;;;;5114734;28;20031;-77
2021/01/23 01:37:20;;;;;;;1.00;0.52;;;1.70;91.40;;;;;;5114293;28;20050;-79
2021/01/23 01:39:46;;;;;;;1.17;0.65;;;1.80;91.40;;;;;;5094781;28;20097;-77
2021/01/23 01:42:17;;;;;;;1.83;0.98;;;1.80;91.40;;;;;;5094930;28;20043;-78
2021/01/23 01:47:42;;;;;;;0.65;0.50;;;1.90;91.30;;;;;;5016485;28;20045;-79
2021/01/23 01:50:09;;;;;;;1.25;0.60;;;2.00;91.30;;;;;;5013676;28;20041;-79
2021/01/23 01:52:35;;;;;;;0.73;0.50;;;1.90;91.20;;;;;;5030233;28;20046;-79
2021/01/23 01:55:01;;;;;;;1.13;0.75;;;1.90;91.20;;;;;;4997794;28;20467;-78
2021/01/23 01:57:26;;;;;;;0.90;0.55;;;2.00;91.20;;;;;;5030577;28;20042;-79
2021/01/23 01:59:54;;;;;;;1.20;0.80;;;2.00;91.20;;;;;;5031094;28;20033;-79
2021/01/23 02:02:41;;;;;;;0.70;0.57;;;2.10;91.10;;;;;;4981196;28;20488;-80
2021/01/23 02:05:19;;;;;;;2.05;1.10;;;2.20;91.10;;;;;;5015922;28;20057;-79
2021/01/23 02:08:00;;;;;;;1.23;0.70;;;2.30;91.10;;;;;;4998007;28;20052;-80
2021/01/23 02:10:56;;;;;;;1.55;0.82;;;2.10;91.10;;;;;;5030592;28;20127;-79
2021/01/23 02:13:36;;;;;;;1.63;0.90;;;2.10;91.10;;;;;;5030334;28;20056;-82
2021/01/23 02:16:11;;;;;;;1.08;0.60;;;2.20;91.10;;;;;;5013740;28;20045;-77
2021/01/23 02:18:43;;;;;;;1.70;0.90;;;2.10;91.10;;;;;;5079012;28;20069;-79
2021/01/23 02:21:35;;;;;;;1.90;0.80;;;2.20;91.10;;;;;;5094246;28;20042;-77
2021/01/23 02:24:03;;;;;;;0.77;0.63;;;2.20;91.10;;;;;;5112800;28;20043;-78
2021/01/23 02:26:42;;;;;;;1.85;0.93;;;2.20;91.00;;;;;;5112596;28;20043;-76
2021/01/23 02:29:47;;;;;;;1.10;0.65;;;2.20;91.10;;;;;;5094264;28;20046;-77
2021/01/23 02:32:15;;;;;;;2.05;0.80;;;2.20;91.10;;;;;;5091660;28;20123;-76
2021/01/23 02:34:43;;;;;;;0.85;0.65;;;2.10;91.10;;;;;;5094778;28;20047;-77
2021/01/23 02:37:09;;;;;;;1.27;0.90;;;2.20;91.10;;;;;;5094792;28;20051;-77
2021/01/23 02:39:35;;;;;;;1.25;0.80;;;2.10;91.10;;;;;;5097731;28;20139;-78
2021/01/23 02:42:01;;;;;;;2.60;0.90;;;2.20;91.10;;;;;;5116201;28;20042;-78
2021/01/23 02:44:27;;;;;;;1.23;0.95;;;2.30;91.10;;;;;;5115792;28;20130;-77
2021/01/23 02:46:54;;;;;;;2.10;0.80;;;2.40;91.10;;;;;;5116359;28;20037;-78
2021/01/23 02:49:21;;;;;;;2.20;1.00;;;2.40;91.00;;;;;;5097393;28;20043;-78
2021/01/23 02:52:04;;;;;;;2.25;1.10;;;2.40;90.90;;;;;;5115867;28;20449;-78
2021/01/23 02:54:53;;;;;;;2.60;1.30;;;2.50;90.90;;;;;;5097574;28;20047;-78
2021/01/23 02:57:21;;;;;;;1.73;1.17;;;2.50;90.90;;;;;;5113903;28;20040;-78
2021/01/23 02:59:50;;;;;;;1.70;0.90;;;2.60;90.80;;;;;;5115603;28;20497;-78
2021/01/23 03:02:19;;;;;;;2.38;1.30;;;2.60;90.80;;;;;;5115348;28;20032;-78
2021/01/23 03:04:46;;;;;;;2.20;1.08;;;2.70;90.80;;;;;;5115437;28;20088;-78
2021/01/23 03:07:15;;;;;;;1.90;1.20;;;2.70;90.80;;;;;;5115844;28;20043;-78
2021/01/23 03:09:41;;;;;;;1.83;1.13;;;2.60;90.80;;;;;;5115917;28;20385;-78
2021/01/23 03:12:07;;;;;;;2.75;1.52;;;2.60;90.80;;;;;;5097065;28;20039;-78
2021/01/23 03:14:34;;;;;;;3.05;1.50;;;2.70;90.80;;;;;;5116009;28;20043;-78
2021/01/23 03:17:00;;;;;;;1.38;1.10;;;2.70;90.80;;;;;;5115433;28;20039;-79
2021/01/23 03:19:25;;;;;;;2.38;1.40;;;2.80;90.80;;;;;;5115387;28;20046;-79
2021/01/23 03:21:52;;;;;;;2.92;1.25;;;2.80;90.70;;;;;;5080098;28;20043;-79
2021/01/23 03:24:19;;;;;;;2.47;1.10;;;2.80;90.70;;;;;;5115874;28;20043;-79
2021/01/23 03:26:45;;;;;;;2.25;1.20;;;2.90;90.70;;;;;;5115271;28;20035;-79
2021/01/23 03:29:11;;;;;;;2.65;1.38;;;2.90;90.70;;;;;;5115395;28;20036;-79
2021/01/23 03:31:37;;;;;;;3.80;1.40;;;2.90;90.70;;;;;;5115206;28;20040;-79
2021/01/23 03:34:04;;;;;;;2.67;1.60;;;2.90;90.60;;;;;;5115176;28;20051;-79
2021/01/23 03:36:31;;;;;;;5.22;1.80;;;3.00;90.60;;;;;;5115366;28;20050;-79
2021/01/23 03:38:57;;;;;;;3.85;1.67;;;3.00;90.60;;;;;;5115161;28;20044;-79
2021/01/23 03:41:22;;;;;;;2.38;1.45;;;3.00;90.60;;;;;;5115714;28;20035;-79
2021/01/23 03:43:48;;;;;;;3.05;1.83;;;3.00;90.60;;;;;;5096571;28;20122;-79
2021/01/23 03:46:14;;;;;;;3.90;1.60;;;3.00;90.60;;;;;;5128141;28;20050;-78
2021/01/23 03:48:40;;;;;;;3.38;1.77;;;3.10;90.60;;;;;;5135322;28;20047;-80
2021/01/23 03:51:06;;;;;;;2.05;1.50;;;3.10;90.60;;;;;;5137100;28;20035;-78
2021/01/23 03:53:32;;;;;;;2.85;1.63;;;3.10;90.60;;;;;;5136882;28;20028;-78
2021/01/23 03:55:58;;;;;;;3.90;1.73;;;3.10;90.60;;;;;;5136296;28;20048;-78
2021/01/23 03:58:24;;;;;;;3.85;1.80;;;3.10;90.60;;;;;;5131173;28;20049;-79
2021/01/23 04:00:50;;;;;;;2.53;1.42;;;3.10;90.60;;;;;;5096743;28;20397;-79
2021/01/23 04:03:15;;;;;;;3.63;1.90;;;3.10;90.60;;;;;;5114999;28;20095;-79
2021/01/23 04:05:41;;;;;;;2.58;1.52;;;3.10;90.60;;;;;;5115796;28;20036;-79
2021/01/23 04:08:07;;;;;;;3.00;1.33;;;3.20;90.60;;;;;;5115179;28;20397;-79
2021/01/23 04:10:34;;;;;;;3.40;1.77;;;3.10;90.60;;;;;;5096700;28;20534;-78
2021/01/23 04:13:00;;;;;;;3.08;1.40;;;3.10;90.60;;;;;;5096490;28;20164;-79
2021/01/23 04:15:26;;;;;;;1.70;1.27;;;3.10;90.60;;;;;;5096722;28;20477;-79
2021/01/23 04:17:52;;;;;;;2.63;1.40;;;3.20;90.70;;;;;;5096726;28;20130;-79
2021/01/23 04:20:18;;;;;;;2.28;1.30;;;3.20;90.60;;;;;;5114397;28;20042;-79
2021/01/23 04:22:44;;;;;;;1.55;1.02;;;3.20;90.70;;;;;;5114398;28;20075;-79
2021/01/23 04:25:10;;;;;;;2.70;1.55;;;3.30;90.70;;;;;;5114694;28;20039;-79
2021/01/23 04:27:36;;;;;;;2.70;1.35;;;3.30;90.70;;;;;;5114132;28;20035;-79
2021/01/23 04:30:04;;;;;;;2.40;1.50;;;3.30;90.60;;;;;;5114817;28;20439;-78
2021/01/23 04:32:30;;;;;;;3.40;1.70;;;3.30;90.60;;;;;;5116681;28;20047;-79
2021/01/23 04:34:55;;;;;;;2.97;1.70;;;3.30;90.60;;;;;;5114042;28;20044;-78
2021/01/23 04:37:21;;;;;;;2.97;1.63;;;3.40;90.60;;;;;;5114076;28;20083;-79
2021/01/23 04:39:47;;;;;;;3.45;1.45;;;3.30;90.60;;;;;;5113979;28;20105;-78
2021/01/23 04:42:12;;;;;;;2.13;1.33;;;3.30;90.60;;;;;;5113984;28;20039;-79
2021/01/23 04:44:39;;;;;;;2.20;1.30;;;3.40;91.00;;;;;;5114813;28;20138;-79
2021/01/23 04:47:05;;;;;;;3.63;1.50;;;3.40;90.70;;;;;;5114054;28;20118;-78
2021/01/23 04:49:32;;;;;;;3.25;1.90;;;3.40;90.70;;;;;;5096630;28;20066;-78
2021/01/23 04:52:02;;;;;;;3.17;1.70;;;3.40;90.60;;;;;;5113672;28;20442;-79
2021/01/23 04:54:30;;;;;;;4.10;1.60;;;3.40;90.70;;;;;;5113809;28;20051;-78
2021/01/23 04:56:56;;;;;;;2.50;1.38;;;3.40;90.60;;;;;;5133649;28;20046;-77
2021/01/23 04:59:22;;;;;;;3.05;1.42;;;3.50;90.70;;;;;;5135143;28;20020;-77
2021/01/23 05:02:17;;;;;;;2.47;1.33;;;3.40;90.70;;;;;;5128661;28;20069;-79
2021/01/23 05:04:47;;;;;;;2.35;1.10;;;3.50;90.70;;;;;;5114128;28;20100;-79
2021/01/23 05:07:25;;;;;;;2.63;1.27;;;3.40;90.70;;;;;;5094472;28;20048;-79
2021/01/23 05:09:51;;;;;;;2.03;1.20;;;3.40;90.80;;;;;;5114085;28;20400;-79
2021/01/23 05:12:39;;;;;;;2.25;1.02;;;3.50;90.80;;;;;;5114076;28;20040;-79
2021/01/23 05:15:09;;;;;;;2.45;1.42;;;3.40;90.80;;;;;;5114325;28;20509;-79
2021/01/23 05:17:52;;;;;;;3.92;1.70;;;3.30;90.70;;;;;;5114116;28;20500;-78
2021/01/23 05:20:41;;;;;;;1.85;1.20;;;3.40;90.80;;;;;;5114132;28;20040;-78
2021/01/23 05:23:13;;;;;;;1.50;1.10;;;3.30;90.80;;;;;;5113611;28;20036;-78
2021/01/23 05:25:40;;;;;;;2.72;1.38;;;3.30;90.80;;;;;;5096171;28;20043;-78
2021/01/23 05:28:09;;;;;;;2.40;1.55;;;3.30;90.80;;;;;;5113743;28;20036;-78
2021/01/23 05:30:50;;;;;;;3.55;1.65;;;3.30;90.80;;;;;;5095003;28;20047;-78
2021/01/23 05:33:19;;;;;;;1.67;1.02;;;3.30;90.90;;;;;;5113675;28;20042;-78
2021/01/23 05:35:56;;;;;;;1.90;1.20;;;3.40;90.90;;;;;;5113904;28;20401;-78
2021/01/23 05:38:28;;;;;;;3.25;1.30;;;3.20;90.80;;;;;;5113566;28;20039;-79
2021/01/23 05:40:57;;;;;;;2.35;1.13;;;3.20;90.90;;;;;;5095310;28;20412;-79
2021/01/23 05:43:39;;;;;;;2.78;1.42;;;3.20;90.90;;;;;;5114006;28;20405;-78
2021/01/23 05:46:11;;;;;;;2.67;1.35;;;3.20;91.00;;;;;;5116213;28;20139;-78
2021/01/23 05:48:43;;;;;;;3.00;1.52;;;3.30;91.00;;;;;;5113486;28;20050;-79
2021/01/23 05:51:09;;;;;;;3.13;1.58;;;3.30;90.90;;;;;;5113995;28;20043;-78
2021/01/23 05:53:35;;;;;;;2.75;1.52;;;3.30;90.90;;;;;;5113923;28;20092;-78
2021/01/23 05:56:02;;;;;;;2.78;1.40;;;3.30;91.00;;;;;;5095802;28;20036;-79
2021/01/23 05:58:29;;;;;;;6.70;1.92;;;3.30;90.90;;;;;;5113737;28;20038;-78
2021/01/23 06:00:56;;;;;;;3.05;1.65;;;3.30;90.90;;;;;;5113296;28;20593;-78
2021/01/23 06:03:22;;;;;;;3.47;1.80;;;3.30;91.00;;;;;;5094615;28;20027;-78
2021/01/23 06:05:53;;;;;;;2.83;1.40;;;3.30;90.90;;;;;;5113454;28;20059;-78
2021/01/23 06:08:41;;;;;;;3.53;1.58;;;3.40;91.00;;;;;;5094792;28;20071;-79
2021/01/23 06:11:36;;;;;;;4.30;1.63;;;3.30;91.00;;;;;;5113102;28;20051;-79
2021/01/23 06:14:02;;;;;;;2.92;1.50;;;3.40;90.90;;;;;;5112777;28;20048;-79
2021/01/23 06:16:38;;;;;;;2.28;1.27;;;3.30;90.90;;;;;;5094393;28;20046;-79
2021/01/23 06:19:42;;;;;;;2.50;1.30;;;3.30;90.90;;;;;;5112743;28;20093;-79
2021/01/23 06:22:08;;;;;;;2.22;1.23;;;3.30;91.00;;;;;;5097457;28;20043;-79
2021/01/23 06:24:51;;;;;;;1.65;1.02;;;3.30;91.00;;;;;;5113225;28;20040;-78
2021/01/23 06:27:17;;;;;;;2.70;1.33;;;3.20;91.10;;;;;;5094443;28;20070;-79
2021/01/23 06:29:45;;;;;;;2.15;1.20;;;3.30;91.10;;;;;;5113118;28;20496;-78
2021/01/23 06:32:31;;;;;;;2.85;1.25;;;3.30;91.10;;;;;;5112980;28;20443;-79
2021/01/23 06:35:00;;;;;;;2.47;1.40;;;3.30;91.10;;;;;;5097821;28;20046;-78
2021/01/23 06:37:29;;;;;;;2.08;1.20;;;3.30;91.10;;;;;;5094255;28;20063;-78
2021/01/23 06:40:03;;;;;;;1.80;0.93;;;3.30;91.10;;;;;;5112241;28;20036;-78
2021/01/23 06:42:29;;;;;;;3.13;1.55;;;3.30;91.10;;;;;;5112572;28;20055;-78
2021/01/23 06:44:54;;;;;;;2.67;1.42;;;3.30;91.10;;;;;;5112706;28;20081;-79
2021/01/23 06:47:21;;;;;;;2.70;1.40;;;3.40;91.10;;;;;;5094248;28;20441;-79
2021/01/23 06:49:46;;;;;;;3.88;1.50;;;3.40;91.10;;;;;;5112711;28;20126;-79
2021/01/23 06:52:12;;;;;;;2.97;1.42;;;3.50;91.00;;;;;;5112269;28;20070;-79
2021/01/23 06:54:44;;;;;;;3.83;1.58;;;3.40;91.00;;;;;;5077988;28;20477;-78
2021/01/23 06:57:10;;;;;;;2.90;1.40;;;3.50;91.00;;;;;;5113058;28;20063;-79
2021/01/23 06:59:36;;;;;;;2.20;1.30;;;3.40;91.00;;;;;;5094836;28;20046;-78
2021/01/23 07:02:04;;;;;;;2.17;1.27;;;3.50;91.00;;;;;;5112425;28;20126;-79
2021/01/23 07:04:33;;;;;;;2.28;1.40;;;3.50;91.00;;;;;;5094718;28;20435;-79
2021/01/23 07:07:00;;;;;;;2.47;1.30;;;3.50;91.00;;;;;;5112607;28;20116;-79
2021/01/23 07:09:44;;;;;;;2.80;1.35;;;3.50;91.00;;;;;;5112717;28;20125;-79
2021/01/23 07:12:13;;;;;;;2.97;1.70;;;3.50;91.00;;;;;;5112340;28;20050;-78
2021/01/23 07:14:39;;;;;;;2.65;1.55;;;3.50;91.00;;;;;;5093252;28;20040;-78
2021/01/23 07:17:13;;;;;;;3.22;1.75;;;3.50;91.00;;;;;;5113124;28;20046;-78
2021/01/23 07:19:39;;;;;;;2.95;1.50;;;3.60;91.00;;;;;;5060738;28;20134;-78
2021/01/23 07:22:05;;;;;;;3.22;1.75;;;3.50;91.00;;;;;;5114163;28;20040;-78
2021/01/23 07:24:33;;;;;;;3.40;1.75;;;3.60;91.00;;;;;;5114278;28;20104;-78
2021/01/23 07:26:59;;;;;;;4.43;1.70;;;3.50;91.00;;;;;;5117300;28;20039;-78
2021/01/23 07:29:25;;;;;;;3.63;1.88;;;3.60;91.00;;;;;;5097140;28;20089;-78
2021/01/23 07:31:55;;;;;;;3.13;1.48;;;3.60;91.00;;;;;;5099735;28;20043;-78
2021/01/23 07:34:21;;;;;;;4.05;1.85;;;3.60;91.00;;;;;;5118403;28;20044;-77
2021/01/23 07:36:47;;;;;;;4.65;2.08;;;3.50;91.00;;;;;;5117827;28;20039;-78
2021/01/23 07:39:14;;;;;;;3.47;1.80;;;3.60;91.00;;;;;;5116998;28;20035;-78
2021/01/23 07:41:46;;;;;;;4.60;2.10;;;3.50;91.00;;;;;;5118590;28;20044;-78
2021/01/23 07:44:12;;;;;;;3.20;1.65;;;3.60;91.00;;;;;;5118707;28;20035;-78
2021/01/23 07:46:40;;;;;;;3.45;1.80;;;3.60;91.00;;;;;;5118965;28;20036;-78
2021/01/23 07:49:07;;;;;;;2.10;1.38;;;3.60;91.00;;;;;;5118384;28;20504;-78
2021/01/23 07:51:33;;;;;;;4.80;1.60;;;3.60;91.00;;;;;;5123452;28;20048;-77
2021/01/23 07:54:06;;;;;;;3.17;1.83;;;3.60;91.00;;;;;;5118212;28;20096;-78
2021/01/23 07:56:32;;;;;;;3.63;1.92;;;3.50;91.00;;;;;;5118189;28;20039;-77
2021/01/23 07:58:58;;;;;;;6.45;2.58;;;3.50;91.10;;;;;;5120352;28;20040;-78
2021/01/23 08:01:24;;;;;;;4.60;2.33;;;3.50;91.10;;;;;;5118492;28;20047;-78
2021/01/23 08:03:50;;;;;;;3.75;1.90;;;3.50;91.10;;;;;;5115492;28;20051;-78
2021/01/23 08:06:20;;;;;;;3.97;1.88;;;3.50;91.10;;;;;;5080521;28;20032;-78
2021/01/23 08:08:47;;;;;;;4.65;2.30;;;3.50;91.10;;;;;;5117390;28;20421;-78
2021/01/23 08:11:36;;;;;;;5.00;2.15;;;3.50;91.20;;;;;;5121860;28;20040;-78
2021/01/23 08:14:13;;;;;;;4.00;2.00;;;3.50;91.20;;;;;;5120991;28;20096;-77
2021/01/23 08:16:54;;;;;;;3.85;1.88;;;3.50;91.10;;;;;;5119696;28;20048;-78
2021/01/23 08:19:21;;;;;;;3.33;2.08;;;3.60;91.10;;;;;;5116713;28;20038;-78
2021/01/23 08:22:07;;;;;;;4.43;2.20;;;3.60;91.10;;;;;;5115236;28;20042;-77
2021/01/23 08:24:33;;;;;;;3.58;2.10;;;3.70;91.10;;;;;;5116386;28;20467;-77
2021/01/23 08:27:00;;;;;;;4.10;2.22;;;3.80;91.00;;;;;;5115694;28;20471;-79
2021/01/23 08:29:26;;;;;;;4.25;2.40;;;3.80;91.00;;;;;;5114821;28;20104;-79
2021/01/23 08:32:01;;;;;;;4.32;2.17;;;3.80;90.90;;;;;;5115611;28;20477;-79
2021/01/23 08:34:27;;;;;;;4.55;2.10;;;3.90;90.90;;;;;;5115768;28;20047;-78
2021/01/23 08:36:53;;;;;;;4.60;2.42;;;3.90;90.90;;;;;;5095950;28;20117;-79
2021/01/23 08:39:19;;;;;;;5.20;2.50;;;3.90;90.80;;;;;;5115368;28;20036;-80
2021/01/23 08:41:44;;;;;;;5.10;2.47;;;3.80;90.80;;;;;;5077296;28;20040;-79
2021/01/23 08:44:10;;;;;;;4.93;2.58;;;3.90;90.80;;;;;;5097375;28;20134;-79
2021/01/23 08:46:36;;;;;;;3.13;1.83;;;3.90;90.90;;;;;;5095937;28;20051;-79
2021/01/23 08:49:01;;;;;;;4.13;1.90;;;4.00;90.90;;;;;;5079001;28;20051;-79
2021/01/23 08:51:30;;;;;;;4.90;2.22;;;4.00;90.90;;;;;;5114922;28;20125;-78
2021/01/23 08:53:56;;;;;;;2.85;1.75;;;4.10;90.90;;;;;;5118547;28;20047;-79
2021/01/23 08:56:21;;;;;;;3.80;2.05;;;4.10;90.80;;;;;;5121012;28;20039;-79
2021/01/23 08:58:47;;;;;;;3.63;1.77;;;4.10;90.80;;;;;;5115749;28;20536;-78
2021/01/23 09:01:14;;;;;;;3.65;1.98;;;4.10;90.70;;;;;;5096382;28;20059;-79
2021/01/23 09:03:40;;;;;;;3.75;1.92;;;4.10;90.80;;;;;;5096470;28;20046;-79
2021/01/23 09:06:07;;;;;;;3.60;1.92;;;4.10;90.80;;;;;;5115396;28;20473;-78
2021/01/23 09:08:33;;;;;;;3.90;1.65;;;4.20;90.90;;;;;;5114644;28;20036;-79
2021/01/23 09:10:59;;;;;;;4.22;1.98;;;4.30;90.90;;;;;;5114762;28;20039;-79
2021/01/23 09:13:25;;;;;;;2.83;1.60;;;4.10;90.80;;;;;;5094584;28;20127;-80
2021/01/23 09:15:50;;;;;;;3.03;1.80;;;4.20;90.80;;;;;;5079649;28;20089;-78
2021/01/23 09:18:16;;;;;;;2.92;1.67;;;4.20;90.80;;;;;;5097803;28;20038;-81
2021/01/23 09:20:42;;;;;;;4.63;1.95;;;4.20;90.80;;;;;;5113935;28;20051;-79
2021/01/23 09:23:08;;;;;;;4.05;2.22;;;4.10;90.80;;;;;;5095237;28;20040;-78
2021/01/23 09:25:33;;;;;;;4.85;2.03;;;4.20;90.90;;;;;;5114582;28;20172;-79
2021/01/23 09:27:59;;;;;;;4.30;2.15;;;4.20;90.90;;;;;;5098602;28;20130;-80
2021/01/23 09:30:25;;;;;;;3.42;1.73;;;4.20;90.80;;;;;;5117401;28;20393;-81
2021/01/23 09:32:56;;;;;;;3.13;1.73;;;4.30;90.80;;;;;;5116057;28;20489;-84
2021/01/23 09:35:22;;;;;;;3.08;1.77;;;4.40;90.80;;;;;;5101914;28;20059;-78
2021/01/23 09:37:47;;;;;;;2.72;1.55;;;4.30;90.80;;;;;;5122429;28;20047;-79
2021/01/23 09:40:14;;;;;;;2.85;1.58;;;4.40;90.80;;;;;;5114557;28;20039;-79
2021/01/23 09:42:39;;;;;;;2.92;1.55;;;4.40;90.80;;;;;;5114513;28;20165;-80
2021/01/23 09:45:06;;;;;;;2.67;1.67;;;4.40;90.70;;;;;;5079802;28;20073;-79
2021/01/23 09:47:32;;;;;;;2.92;1.60;;;4.50;90.70;;;;;;5113028;28;20047;-79
2021/01/23 09:49:57;;;;;;;3.05;1.35;;;4.50;90.70;;;;;;5113432;28;20521;-79
2021/01/23 09:52:23;;;;;;;3.92;1.90;;;4.50;90.60;;;;;;5095547;28;20105;-79
2021/01/23 09:54:48;;;;;;;4.60;2.10;;;4.60;90.70;;;;;;5099022;28;20044;-77
2021/01/23 09:57:14;;;;;;;3.58;1.70;;;4.60;90.60;;;;;;5116455;28;20489;-80
2021/01/23 09:59:40;;;;;;;4.22;1.65;;;4.70;90.60;;;;;;5097816;28;20031;-78
2021/01/23 10:02:06;;;;;;;2.80;1.60;;;4.80;90.60;;;;;;5122167;28;20449;-79
2021/01/23 10:04:31;;;;;;;3.95;2.03;;;4.80;90.50;;;;;;5099992;28;20032;-77
2021/01/23 10:06:57;;;;;;;4.47;1.80;;;4.80;90.50;;;;;;5115244;28;20039;-78
2021/01/23 10:09:23;;;;;;;3.90;1.88;;;4.80;90.40;;;;;;5116277;28;20137;-79
2021/01/23 10:11:49;;;;;;;3.65;1.83;;;4.90;90.40;;;;;;5117542;28;20396;-80
2021/01/23 10:14:16;;;;;;;2.80;1.40;;;5.00;90.40;;;;;;5113761;28;20096;-85
2021/01/23 10:16:41;;;;;;;2.58;1.42;;;5.00;90.30;;;;;;5113189;28;20036;-80
2021/01/23 10:19:13;;;;;;;3.30;1.63;;;5.00;90.30;;;;;;5116381;28;20051;-85
2021/01/23 10:21:45;;;;;;;2.67;1.60;;;5.00;90.30;;;;;;5078568;28;20093;-82
2021/01/23 10:24:11;;;;;;;3.13;1.60;;;5.10;90.20;;;;;;5080675;28;20044;-79
2021/01/23 10:26:37;;;;;;;2.63;1.45;;;5.20;90.20;;;;;;5115282;28;20043;-79
2021/01/23 10:29:02;;;;;;;2.47;1.25;;;5.20;90.20;;;;;;5118524;28;20497;-76
2021/01/23 10:31:28;;;;;;;3.45;1.40;;;5.30;90.20;;;;;;5113127;28;20126;-80
2021/01/23 10:33:54;;;;;;;2.78;1.52;;;5.30;90.20;;;;;;5116513;28;20195;-78
2021/01/23 10:36:20;;;;;;;2.72;1.67;;;5.30;90.10;;;;;;5115578;28;20047;-78
2021/01/23 10:38:47;;;;;;;2.20;1.45;;;5.40;90.10;;;;;;5116939;28;20477;-78
2021/01/23 10:41:13;;;;;;;4.05;1.98;;;5.50;90.10;;;;;;5114775;28;20452;-77
2021/01/23 10:43:39;;;;;;;2.88;1.55;;;5.50;90.00;;;;;;5121712;28;20040;-79
2021/01/23 10:46:04;;;;;;;3.40;1.75;;;5.60;89.90;;;;;;5117369;28;20036;-79
2021/01/23 10:48:30;;;;;;;3.85;1.80;;;5.70;89.90;;;;;;5118709;28;20040;-79
2021/01/23 10:50:56;;;;;;;2.40;1.42;;;5.80;89.80;;;;;;5117811;28;20066;-79
2021/01/23 10:53:22;;;;;;;2.95;1.80;;;6.10;89.80;;;;;;5116976;28;20047;-79
2021/01/23 10:55:48;;;;;;;2.10;1.27;;;6.10;89.50;;;;;;5096166;28;20044;-79
2021/01/23 10:58:13;;;;;;;1.92;1.60;;;6.30;89.30;;;;;;5097538;28;20044;-78
2021/01/23 11:00:39;;;;;;;2.95;1.50;;;6.40;89.00;;;;;;5118514;28;20028;-78
2021/01/23 11:03:05;;;;;;;2.80;1.48;;;6.50;88.60;;;;;;5100801;28;20443;-77
2021/01/23 11:05:31;;;;;;;2.30;1.50;;;6.50;88.50;;;;;;5116546;28;20068;-77
2021/01/23 11:07:57;;;;;;;3.92;1.52;;;6.50;88.40;;;;;;5116237;28;20114;-77
2021/01/23 11:10:23;;;;;;;3.30;1.45;;;6.40;88.50;;;;;;5116902;28;20381;-77
2021/01/23 11:12:48;;;;;;;2.80;1.20;;;6.30;88.70;;;;;;5118178;28;20042;-78
2021/01/23 11:15:15;;;;;;;1.75;1.30;;;6.30;88.80;;;;;;5098369;28;20062;-79
2021/01/23 11:17:40;;;;;;;2.42;1.40;;;6.30;88.90;;;;;;5115469;28;20047;-77
2021/01/23 11:20:07;;;;;;;2.97;1.33;;;6.40;88.80;;;;;;5103430;28;20066;-77
2021/01/23 11:22:33;;;;;;;3.22;1.13;;;6.40;88.70;;;;;;5097770;28;20119;-78
2021/01/23 11:24:58;;;;;;;2.33;1.10;;;6.40;88.70;;;;;;5116432;28;20090;-78
2021/01/23 11:27:24;;;;;;;2.83;1.48;;;6.50;88.70;;;;;;5098278;28;20497;-75
2021/01/23 11:29:50;;;;;;;2.05;1.20;;;6.40;88.60;;;;;;5099381;28;20409;-82
2021/01/23 11:32:16;;;;;;;1.92;1.30;;;6.30;88.60;;;;;;5099628;28;20059;-80
2021/01/23 11:34:44;;;;;;;1.60;1.02;;;6.20;88.70;;;;;;5100852;28;20031;-82
2021/01/23 11:37:11;;;;;;;2.08;1.00;;;6.20;88.90;;;;;;5086396;28;20044;-81
2021/01/23 11:39:37;;;;;;;2.50;1.17;;;6.20;89.00;;;;;;5067052;28;20036;-80
2021/01/23 11:42:04;;;;;;;2.13;1.35;;;6.10;89.00;;;;;;5082233;28;20429;-80
2021/01/23 11:44:30;;;;;;;1.92;1.20;;;6.10;89.00;;;;;;5100715;28;20042;-81
2021/01/23 11:46:56;;;;;;;1.42;1.05;;;6.10;89.00;;;;;;5117999;28;20118;-82
2021/01/23 11:49:21;;;;;;;2.30;1.10;;;6.10;88.90;;;;;;5118415;28;20039;-82
2021/01/23 11:51:47;;;;;;;2.15;1.02;;;6.30;88.90;;;;;;5118199;28;20055;-81
2021/01/23 11:54:13;;;;;;;2.75;1.00;;;6.20;88.70;;;;;;5119120;28;20054;-81
2021/01/23 11:56:38;;;;;;;2.38;1.08;;;6.30;88.50;;;;;;5099760;28;20404;-82
2021/01/23 11:59:04;;;;;;;1.48;1.20;;;6.40;88.50;;;;;;5099691;28;20160;-82
2021/01/23 12:01:30;;;;;;;2.67;1.20;;;6.40;88.30;;;;;;5118914;28;20044;-81
2021/01/23 12:03:58;;;;;;;2.88;1.17;;;6.40;88.20;;;;;;5099537;28;20040;-81
2021/01/23 12:06:24;;;;;;;2.05;1.20;;;6.30;88.30;;;;;;5118053;28;20378;-82
2021/01/23 12:08:50;;;;;;;2.97;1.17;;;6.30;88.30;;;;;;5099794;28;20054;-81
2021/01/23 12:11:15;;;;;;;1.50;1.00;;;6.30;88.40;;;;;;5117628;28;20044;-81
2021/01/23 12:13:41;;;;;;;1.85;1.05;;;6.20;88.40;;;;;;5099834;28;20566;-81
2021/01/23 12:16:07;;;;;;;1.50;0.85;;;6.20;88.60;;;;;;5100860;28;20035;-81
2021/01/23 12:18:33;;;;;;;1.77;0.95;;;6.20;88.70;;;;;;5098562;28;20048;-82
2021/01/23 12:20:58;;;;;;;1.15;0.70;;;6.10;88.70;;;;;;5078329;28;20044;-76
2021/01/23 12:23:24;;;;;;;1.50;0.85;;;6.10;88.80;;;;;;5114928;28;20069;-76
2021/01/23 12:25:50;;;;;;;1.45;0.90;;;6.10;88.80;;;;;;5114718;28;20058;-81
2021/01/23 12:28:15;;;;;;;2.65;1.33;;;6.10;88.90;;;;;;5115368;28;20078;-75
2021/01/23 12:30:41;;;;;;;1.77;1.00;;;6.10;88.80;;;;;;5097450;28;20040;-75
2021/01/23 12:33:07;;;;;;;1.48;0.93;;;6.10;88.70;;;;;;5114396;28;20078;-76
2021/01/23 12:35:33;;;;;;;1.85;1.15;;;6.10;88.70;;;;;;5097782;28;20473;-75
2021/01/23 12:37:59;;;;;;;1.48;0.93;;;6.20;88.70;;;;;;5117522;28;20096;-75
2021/01/23 12:40:25;;;;;;;1.60;0.98;;;6.30;88.70;;;;;;5114580;28;20069;-76
2021/01/23 12:42:51;;;;;;;1.30;0.82;;;6.20;88.60;;;;;;5114125;28;20042;-75
2021/01/23 12:45:17;;;;;;;1.40;0.98;;;6.30;88.50;;;;;;5114577;28;20075;-76
2021/01/23 12:47:43;;;;;;;2.13;1.00;;;6.30;88.30;;;;;;5114667;28;20088;-75
2021/01/23 12:50:09;;;;;;;1.30;0.80;;;6.40;88.30;;;;;;5095852;28;20051;-76
2021/01/23 12:52:35;;;;;;;2.15;1.10;;;6.50;88.30;;;;;;5095950;28;20040;-75
2021/01/23 12:55:01;;;;;;;2.30;1.08;;;6.40;88.00;;;;;;5096537;28;20048;-75
2021/01/23 12:57:27;;;;;;;1.65;1.00;;;6.30;87.90;;;;;;5114306;28;20482;-75
2021/01/23 12:59:52;;;;;;;3.03;1.20;;;6.30;88.10;;;;;;5114328;28;20488;-75
2021/01/23 13:02:18;;;;;;;1.50;1.00;;;6.30;88.20;;;;;;5113788;28;20076;-75
2021/01/23 13:04:44;;;;;;;0.88;0.77;;;6.20;88.20;;;;;;5113743;28;20043;-75
2021/01/23 13:07:10;;;;;;;1.67;1.10;;;6.30;88.20;;;;;;5113882;28;20051;-75